createdAt,value
2022-08-18T00:00:47.564Z,50.922932
2022-08-18T00:01:47.657Z,50.922791
2022-08-18T00:03:00.459Z,50.922962
2022-08-18T00:03:56.143Z,50.926178
2022-08-18T00:04:49.666Z,50.931870
2022-08-18T00:05:47.517Z,50.943104
2022-08-18T00:06:47.715Z,50.950481
2022-08-18T00:07:47.509Z,50.923237
2022-08-18T00:08:47.485Z,50.923092
2022-08-18T00:09:47.481Z,50.923080
2022-08-18T00:10:47.473Z,50.923126
2022-08-18T00:11:47.510Z,50.923069
2022-08-18T00:12:47.523Z,50.923126
2022-08-18T00:13:47.448Z,50.923103
2022-08-18T00:14:47.441Z,50.923111
2022-08-18T00:15:48.893Z,50.923103
2022-08-18T00:16:47.430Z,50.923080
2022-08-18T00:17:47.411Z,50.923080
2022-08-18T00:18:47.406Z,50.923111
2022-08-18T00:19:48.380Z,50.922970
2022-08-18T00:20:48.437Z,50.923065
2022-08-18T00:21:47.386Z,50.922852
2022-08-18T00:22:47.422Z,50.923000
2022-08-18T00:23:47.371Z,50.923065
2022-08-18T00:24:48.581Z,50.922970
2022-08-18T00:25:47.376Z,50.923016
2022-08-18T00:26:47.344Z,50.923016
2022-08-18T00:27:47.333Z,50.923046
2022-08-18T00:28:47.327Z,50.923012
2022-08-18T00:29:47.318Z,50.923065
2022-08-18T00:30:47.341Z,50.922974
2022-08-18T00:31:48.298Z,50.922867
2022-08-18T00:32:47.416Z,50.922791
2022-08-18T00:33:47.286Z,50.922760
2022-08-18T00:34:47.277Z,50.922829
2022-08-18T00:35:47.295Z,50.923008
2022-08-18T00:36:47.261Z,50.922962
2022-08-18T00:37:47.340Z,50.923027
2022-08-18T00:38:47.241Z,50.923050
2022-08-18T00:39:47.816Z,50.922958
2022-08-18T00:40:47.256Z,50.923012
2022-08-18T00:41:47.207Z,50.922901
2022-08-18T00:42:47.275Z,50.922855
2022-08-18T00:43:47.198Z,50.923168
2022-08-18T00:44:47.188Z,50.923023
2022-08-18T00:45:47.211Z,50.922943
2022-08-18T00:46:47.169Z,50.922909
2022-08-18T00:47:47.182Z,50.922787
2022-08-18T00:48:48.894Z,50.922920
2022-08-18T00:49:47.162Z,50.922947
2022-08-18T00:50:47.178Z,50.922951
2022-08-18T00:51:47.147Z,50.922955
2022-08-18T00:52:47.126Z,50.922966
2022-08-18T00:53:47.127Z,50.922989
2022-08-18T00:54:47.108Z,50.922913
2022-08-18T00:55:54.085Z,50.923023
2022-08-18T00:56:48.089Z,50.923046
2022-08-18T00:57:47.108Z,50.922997
2022-08-18T00:58:47.082Z,50.922951
2022-08-18T00:59:47.072Z,50.922951
2022-08-18T01:00:47.111Z,50.923130
2022-08-18T01:01:47.085Z,50.922966
2022-08-18T01:02:47.050Z,50.923080
2022-08-18T01:03:47.039Z,50.922756
2022-08-18T01:04:47.029Z,50.922928
2022-08-18T01:05:47.033Z,50.922970
2022-08-18T01:06:47.045Z,50.923023
2022-08-18T01:07:47.140Z,50.922867
2022-08-18T01:08:47.022Z,50.922867
2022-08-18T01:09:46.990Z,50.922935
2022-08-18T01:10:46.988Z,50.923054
2022-08-18T01:11:47.006Z,50.923023
2022-08-18T01:12:47.253Z,50.922932
2022-08-18T01:13:47.960Z,50.922943
2022-08-18T01:14:46.961Z,50.922955
2022-08-18T01:15:46.939Z,50.923000
2022-08-18T01:16:56.695Z,50.923012
2022-08-18T01:17:47.988Z,50.922894
2022-08-18T01:18:46.911Z,50.922836
2022-08-18T01:19:46.898Z,50.922981
2022-08-18T01:20:46.904Z,50.922867
2022-08-18T01:21:46.921Z,50.922947
2022-08-18T01:22:46.970Z,50.922874
2022-08-18T01:23:46.877Z,50.922955
2022-08-18T01:24:46.868Z,50.922981
2022-08-18T01:25:46.856Z,50.922981
2022-08-18T01:26:46.877Z,50.922977
2022-08-18T01:27:46.871Z,50.923027
2022-08-18T01:28:46.846Z,50.923050
2022-08-18T01:29:46.814Z,50.923004
2022-08-18T01:30:47.804Z,50.923035
2022-08-18T01:31:54.762Z,50.923031
2022-08-18T01:32:47.789Z,50.922997
2022-08-18T01:33:46.785Z,50.922939
2022-08-18T01:34:46.771Z,50.922939
2022-08-18T01:35:46.772Z,50.923061
2022-08-18T01:36:46.785Z,50.923073
2022-08-18T01:37:46.754Z,50.923046
2022-08-18T01:38:46.743Z,50.923012
2022-08-18T01:41:17.213Z,50.923050
2022-08-18T01:41:25.256Z,50.922993
2022-08-18T01:41:47.774Z,50.922985
2022-08-18T01:42:46.704Z,50.923107
2022-08-18T01:43:46.694Z,50.922935
2022-08-18T01:44:46.695Z,50.922939
2022-08-18T01:45:46.693Z,50.922939
2022-08-18T01:46:46.732Z,50.922909
2022-08-18T01:47:47.739Z,50.922886
2022-08-18T01:48:47.673Z,50.922832
2022-08-18T01:49:46.649Z,50.922913
2022-08-18T01:50:46.633Z,50.922939
2022-08-18T01:51:47.657Z,50.923027
2022-08-18T01:52:46.628Z,50.922855
2022-08-18T01:53:46.643Z,50.922909
2022-08-18T01:54:46.602Z,50.922913
2022-08-18T01:55:46.601Z,50.923031
2022-08-18T01:56:46.621Z,50.922943
2022-08-18T01:57:46.674Z,50.922691
2022-08-18T01:58:46.566Z,50.922600
2022-08-18T01:59:46.565Z,50.922680
2022-08-18T02:00:46.558Z,50.922726
2022-08-18T02:01:50.415Z,50.922771
2022-08-18T02:02:47.542Z,50.922852
2022-08-18T02:03:47.524Z,50.922935
2022-08-18T02:04:46.513Z,50.922890
2022-08-18T02:05:46.509Z,50.922852
2022-08-18T02:06:46.541Z,50.922825
2022-08-18T02:07:46.547Z,50.922775
2022-08-18T02:08:46.565Z,50.922882
2022-08-18T02:09:47.473Z,50.922844
2022-08-18T02:10:46.465Z,50.922966
2022-08-18T02:11:46.489Z,50.922184
2022-08-18T02:12:46.455Z,50.922432
2022-08-18T02:13:46.445Z,50.922676
2022-08-18T02:14:46.444Z,50.922573
2022-08-18T02:15:46.426Z,50.922955
2022-08-18T02:16:46.414Z,50.922859
2022-08-18T02:17:46.439Z,50.922752
2022-08-18T02:18:48.473Z,50.922756
2022-08-18T02:19:46.397Z,50.922745
2022-08-18T02:20:46.387Z,50.922787
2022-08-18T02:21:46.390Z,50.922859
2022-08-18T02:22:46.396Z,50.923100
2022-08-18T02:23:52.796Z,50.923084
2022-08-18T02:24:47.344Z,50.923042
2022-08-18T02:25:46.344Z,50.923065
2022-08-18T02:26:46.329Z,50.923019
2022-08-18T02:27:46.351Z,50.923103
2022-08-18T02:28:46.316Z,50.923084
2022-08-18T02:29:46.324Z,50.922993
2022-08-18T02:30:46.338Z,50.923096
2022-08-18T02:31:46.289Z,50.923023
2022-08-18T02:32:46.312Z,50.923058
2022-08-18T02:33:51.867Z,50.923050
2022-08-18T02:34:47.264Z,50.923069
2022-08-18T02:35:46.260Z,50.923092
2022-08-18T02:36:46.250Z,50.923042
2022-08-18T02:37:46.318Z,50.923042
2022-08-18T02:38:48.705Z,50.923000
2022-08-18T02:39:47.258Z,50.923008
2022-08-18T02:40:46.220Z,50.922993
2022-08-18T02:41:46.203Z,50.922997
2022-08-18T02:42:46.224Z,50.923004
2022-08-18T02:43:46.197Z,50.923092
2022-08-18T02:44:46.181Z,50.923042
2022-08-18T02:45:46.172Z,50.922928
2022-08-18T02:46:46.165Z,50.923222
2022-08-18T02:47:46.245Z,50.923126
2022-08-18T02:48:46.152Z,50.922955
2022-08-18T02:49:46.162Z,50.922760
2022-08-18T02:50:46.144Z,50.922985
2022-08-18T02:51:46.121Z,50.923214
2022-08-18T02:52:46.136Z,50.922939
2022-08-18T02:53:46.120Z,50.922855
2022-08-18T02:54:46.099Z,50.922894
2022-08-18T02:55:46.085Z,50.922943
2022-08-18T02:56:46.087Z,50.922997
2022-08-18T02:57:46.111Z,50.923019
2022-08-18T02:58:46.063Z,50.922935
2022-08-18T02:59:47.445Z,50.922863
2022-08-18T03:00:46.054Z,50.922867
2022-08-18T03:01:46.186Z,50.922798
2022-08-18T03:02:46.062Z,50.922989
2022-08-18T03:03:46.024Z,50.922977
2022-08-18T03:04:46.015Z,50.922855
2022-08-18T03:05:46.002Z,50.923065
2022-08-18T03:06:45.999Z,50.923275
2022-08-18T03:07:46.024Z,50.923130
2022-08-18T03:08:45.981Z,50.922890
2022-08-18T03:09:45.978Z,50.922794
2022-08-18T03:10:45.976Z,50.922791
2022-08-18T03:11:45.957Z,50.922848
2022-08-18T03:12:45.986Z,50.922771
2022-08-18T03:13:45.932Z,50.922684
2022-08-18T03:14:46.935Z,50.923027
2022-08-18T03:15:45.936Z,50.922760
2022-08-18T03:16:53.651Z,50.922447
2022-08-18T03:17:46.940Z,50.922527
2022-08-18T03:18:45.899Z,50.923389
2022-08-18T03:19:46.770Z,50.923504
2022-08-18T03:20:45.884Z,50.923374
2022-08-18T03:21:45.877Z,50.923164
2022-08-18T03:22:45.871Z,50.922966
2022-08-18T03:23:45.893Z,50.922817
2022-08-18T03:24:46.842Z,50.922722
2022-08-18T03:25:45.847Z,50.922665
2022-08-18T03:26:45.838Z,50.922855
2022-08-18T03:27:45.829Z,50.922890
2022-08-18T03:28:45.850Z,50.922836
2022-08-18T03:29:45.813Z,50.922920
2022-08-18T03:30:45.802Z,50.922756
2022-08-18T03:31:45.797Z,50.922806
2022-08-18T03:32:46.093Z,50.922848
2022-08-18T03:33:45.814Z,50.922909
2022-08-18T03:34:45.782Z,50.922905
2022-08-18T03:35:45.765Z,50.922836
2022-08-18T03:36:45.743Z,50.922905
2022-08-18T03:37:46.746Z,50.922951
2022-08-18T03:38:45.767Z,50.922920
2022-08-18T03:39:46.782Z,50.922916
2022-08-18T03:40:45.720Z,50.922939
2022-08-18T03:41:58.241Z,50.922924
2022-08-18T03:42:46.703Z,50.922974
2022-08-18T03:43:51.210Z,50.922913
2022-08-18T03:44:46.682Z,50.922890
2022-08-18T03:45:45.671Z,50.922859
2022-08-18T03:46:45.678Z,50.922943
2022-08-18T03:47:45.757Z,50.922863
2022-08-18T03:48:45.681Z,50.922993
2022-08-18T03:49:45.644Z,50.923019
2022-08-18T03:50:45.630Z,50.923000
2022-08-18T03:51:45.630Z,50.922943
2022-08-18T03:52:45.624Z,50.922863
2022-08-18T03:53:45.641Z,50.922901
2022-08-18T03:54:45.614Z,50.922832
2022-08-18T03:55:45.610Z,50.923576
2022-08-18T03:56:45.585Z,50.923042
2022-08-18T03:57:45.642Z,50.922897
2022-08-18T03:58:45.603Z,50.922993
2022-08-18T03:59:45.571Z,50.923096
2022-08-18T04:00:45.559Z,50.923119
2022-08-18T04:01:45.682Z,50.922955
2022-08-18T04:02:45.539Z,50.922894
2022-08-18T04:03:45.560Z,50.922993
2022-08-18T04:04:45.524Z,50.923050
2022-08-18T04:05:45.516Z,50.922897
2022-08-18T04:06:45.521Z,50.922832
2022-08-18T04:07:45.518Z,50.922974
2022-08-18T04:08:45.517Z,50.923050
2022-08-18T04:09:45.484Z,50.923012
2022-08-18T04:10:45.496Z,50.922981
2022-08-18T04:11:45.477Z,50.922985
2022-08-18T04:12:45.455Z,50.922935
2022-08-18T04:13:45.470Z,50.923077
2022-08-18T04:14:46.446Z,50.923092
2022-08-18T04:15:45.439Z,50.922901
2022-08-18T04:16:45.427Z,50.922989
2022-08-18T04:18:03.525Z,50.923088
2022-08-18T04:18:46.437Z,50.923271
2022-08-18T04:19:45.395Z,50.923004
2022-08-18T04:20:59.387Z,50.923016
2022-08-18T04:21:46.403Z,50.923126
2022-08-18T04:22:45.374Z,50.923031
2022-08-18T04:23:45.393Z,50.922874
2022-08-18T04:24:45.432Z,50.923004
2022-08-18T04:25:45.350Z,50.923027
2022-08-18T04:26:45.341Z,50.923084
2022-08-18T04:27:45.378Z,50.923203
2022-08-18T04:28:45.356Z,50.923016
2022-08-18T04:29:45.318Z,50.922939
2022-08-18T04:30:45.311Z,50.922878
2022-08-18T04:31:45.305Z,50.922958
2022-08-18T04:32:45.310Z,50.922970
2022-08-18T04:33:45.320Z,50.922905
2022-08-18T04:34:45.274Z,50.923027
2022-08-18T04:35:45.284Z,50.922947
2022-08-18T04:36:45.257Z,50.922958
2022-08-18T04:37:45.258Z,50.922989
2022-08-18T04:38:45.240Z,50.923061
2022-08-18T04:39:45.352Z,50.923065
2022-08-18T04:40:45.223Z,50.922951
2022-08-18T04:41:45.216Z,50.922958
2022-08-18T04:42:45.249Z,50.922909
2022-08-18T04:43:45.196Z,50.922783
2022-08-18T04:44:45.225Z,50.922932
2022-08-18T04:45:45.185Z,50.922958
2022-08-18T04:46:45.174Z,50.922791
2022-08-18T04:47:45.194Z,50.923103
2022-08-18T04:48:45.186Z,50.923382
2022-08-18T04:49:45.159Z,50.923401
2022-08-18T04:50:45.143Z,50.923313
2022-08-18T04:52:26.899Z,50.923161
2022-08-18T04:52:46.123Z,50.923168
2022-08-18T04:53:45.147Z,50.923134
2022-08-18T04:54:45.135Z,50.923046
2022-08-18T04:55:45.113Z,50.923000
2022-08-18T04:56:45.095Z,50.923130
2022-08-18T04:57:45.081Z,50.923058
2022-08-18T04:58:45.105Z,50.923061
2022-08-18T04:59:45.070Z,50.923058
2022-08-18T05:00:45.083Z,50.922989
2022-08-18T05:01:45.122Z,50.923279
2022-08-18T05:02:45.039Z,50.923126
2022-08-18T05:03:50.189Z,50.923191
2022-08-18T05:04:46.062Z,50.923286
2022-08-18T05:05:45.018Z,50.923065
2022-08-18T05:06:45.017Z,50.923145
2022-08-18T05:07:45.083Z,50.922955
2022-08-18T05:08:44.993Z,50.922886
2022-08-18T05:09:45.023Z,50.923012
2022-08-18T05:10:44.985Z,50.923145
2022-08-18T05:11:44.977Z,50.923107
2022-08-18T05:12:44.969Z,50.923103
2022-08-18T05:13:44.952Z,50.923134
2022-08-18T05:14:44.972Z,50.923122
2022-08-18T05:16:07.338Z,50.923069
2022-08-18T05:16:48.767Z,50.923172
2022-08-18T05:17:44.961Z,50.923336
2022-08-18T05:18:44.913Z,50.923077
2022-08-18T05:19:44.936Z,50.923214
2022-08-18T05:20:44.904Z,50.923153
2022-08-18T05:21:44.897Z,50.923035
2022-08-18T05:22:44.962Z,50.923073
2022-08-18T05:23:44.901Z,50.923141
2022-08-18T05:24:44.862Z,50.923161
2022-08-18T05:25:44.856Z,50.923145
2022-08-18T05:26:44.854Z,50.923309
2022-08-18T05:27:44.906Z,50.923267
2022-08-18T05:28:44.869Z,50.923187
2022-08-18T05:29:45.757Z,50.923130
2022-08-18T05:30:44.813Z,50.923077
2022-08-18T05:31:44.816Z,50.922928
2022-08-18T05:32:48.633Z,50.923149
2022-08-18T05:33:44.833Z,50.923359
2022-08-18T05:34:44.780Z,50.923183
2022-08-18T05:35:44.769Z,50.922741
2022-08-18T05:36:44.772Z,50.922672
2022-08-18T05:37:44.754Z,50.922661
2022-08-18T05:38:44.784Z,50.922806
2022-08-18T05:39:44.779Z,50.922974
2022-08-18T05:40:44.729Z,50.923031
2022-08-18T05:41:44.721Z,50.923065
2022-08-18T05:42:44.719Z,50.923000
2022-08-18T05:43:51.125Z,50.923042
2022-08-18T05:44:45.702Z,50.923046
2022-08-18T05:45:44.694Z,50.923084
2022-08-18T05:46:44.708Z,50.922855
2022-08-18T05:47:44.673Z,50.922897
2022-08-18T05:48:44.713Z,50.922943
2022-08-18T05:49:44.661Z,50.922897
2022-08-18T05:50:44.653Z,50.922722
2022-08-18T05:51:44.645Z,50.922703
2022-08-18T05:52:45.636Z,50.922791
2022-08-18T05:53:44.658Z,50.922878
2022-08-18T05:54:44.615Z,50.922913
2022-08-18T05:55:47.807Z,50.922970
2022-08-18T05:56:45.616Z,50.922878
2022-08-18T05:57:44.661Z,50.922798
2022-08-18T05:58:44.615Z,50.922791
2022-08-18T05:59:44.573Z,50.922863
2022-08-18T06:00:44.578Z,50.922905
2022-08-18T06:01:44.560Z,50.922977
2022-08-18T06:02:44.583Z,50.922794
2022-08-18T06:03:45.093Z,50.923019
2022-08-18T06:04:44.533Z,50.923176
2022-08-18T06:05:44.529Z,50.923016
2022-08-18T06:06:47.704Z,50.923088
2022-08-18T06:07:45.566Z,50.922897
2022-08-18T06:08:44.529Z,50.922981
2022-08-18T06:09:44.492Z,50.922768
2022-08-18T06:10:44.478Z,50.922955
2022-08-18T06:11:44.474Z,50.922581
2022-08-18T06:12:47.078Z,50.922623
2022-08-18T06:13:45.496Z,50.922878
2022-08-18T06:14:44.448Z,50.922905
2022-08-18T06:15:44.449Z,50.923000
2022-08-18T06:16:45.257Z,50.923050
2022-08-18T06:17:44.428Z,50.923100
2022-08-18T06:18:44.443Z,50.923027
2022-08-18T06:19:44.400Z,50.923035
2022-08-18T06:20:44.409Z,50.923031
2022-08-18T06:21:44.386Z,50.923012
2022-08-18T06:22:52.074Z,50.923065
2022-08-18T06:23:45.417Z,50.923096
2022-08-18T06:24:44.364Z,50.923100
2022-08-18T06:25:44.377Z,50.923100
2022-08-18T06:26:44.343Z,50.923149
2022-08-18T06:27:44.334Z,50.923096
2022-08-18T06:28:44.330Z,50.923058
2022-08-18T06:29:44.347Z,50.923012
2022-08-18T06:30:44.311Z,50.923038
2022-08-18T06:31:44.311Z,50.923031
2022-08-18T06:32:44.311Z,50.923111
2022-08-18T06:33:45.923Z,50.923008
2022-08-18T06:34:44.315Z,50.922955
2022-08-18T06:35:44.267Z,50.923042
2022-08-18T06:36:44.269Z,50.922886
2022-08-18T06:37:44.262Z,50.923023
2022-08-18T06:38:45.775Z,50.922985
2022-08-18T06:39:44.411Z,50.922997
2022-08-18T06:40:44.228Z,50.923069
2022-08-18T06:41:44.223Z,50.922981
2022-08-18T06:42:44.215Z,50.922962
2022-08-18T06:43:44.209Z,50.923073
2022-08-18T06:44:44.238Z,50.923046
2022-08-18T06:45:44.191Z,50.922939
2022-08-18T06:46:44.190Z,50.922977
2022-08-18T06:47:44.174Z,50.923100
2022-08-18T06:48:44.172Z,50.923031
2022-08-18T06:49:44.187Z,50.923107
2022-08-18T06:50:44.149Z,50.923195
2022-08-18T06:51:44.141Z,50.923096
2022-08-18T06:52:44.153Z,50.923050
2022-08-18T06:53:44.132Z,50.922817
2022-08-18T06:54:49.369Z,50.923031
2022-08-18T06:55:45.114Z,50.923088
2022-08-18T06:56:44.104Z,50.922993
2022-08-18T06:57:44.137Z,50.922813
2022-08-18T06:58:44.105Z,50.922943
2022-08-18T06:59:44.115Z,50.922981
2022-08-18T07:00:44.161Z,50.923157
2022-08-18T07:01:45.064Z,50.923050
2022-08-18T07:02:44.064Z,50.923130
2022-08-18T07:03:44.075Z,50.922909
2022-08-18T07:04:44.070Z,50.923042
2022-08-18T07:05:44.030Z,50.923042
2022-08-18T07:06:44.014Z,50.923145
2022-08-18T07:07:44.015Z,50.923107
2022-08-18T07:08:44.002Z,50.923084
2022-08-18T07:09:44.021Z,50.923145
2022-08-18T07:10:44.991Z,50.923077
2022-08-18T07:11:43.981Z,50.923073
2022-08-18T07:12:43.975Z,50.923050
2022-08-18T07:13:43.967Z,50.922997
2022-08-18T07:14:43.992Z,50.922897
2022-08-18T07:15:44.008Z,50.923180
2022-08-18T07:16:59.980Z,50.922932
2022-08-18T07:17:45.929Z,50.923145
2022-08-18T07:18:43.933Z,50.923119
2022-08-18T07:19:43.955Z,50.923161
2022-08-18T07:20:43.912Z,50.923141
2022-08-18T07:21:43.900Z,50.923016
2022-08-18T07:22:43.921Z,50.923122
2022-08-18T07:23:53.742Z,50.923164
2022-08-18T07:24:44.910Z,50.923004
2022-08-18T07:25:43.880Z,50.922985
2022-08-18T07:26:43.866Z,50.923100
2022-08-18T07:27:43.877Z,50.922920
2022-08-18T07:28:43.834Z,50.922821
2022-08-18T07:29:44.865Z,50.922886
2022-08-18T07:31:00.243Z,50.922955
2022-08-18T07:31:45.822Z,50.922874
2022-08-18T07:32:43.828Z,50.922932
2022-08-18T07:33:43.803Z,50.923054
2022-08-18T07:34:43.837Z,50.923023
2022-08-18T07:35:43.791Z,50.923073
2022-08-18T07:36:43.794Z,50.922871
2022-08-18T07:37:43.766Z,50.922916
2022-08-18T07:38:44.414Z,50.922901
2022-08-18T07:39:48.466Z,50.922932
2022-08-18T07:40:43.777Z,50.922993
2022-08-18T07:41:43.757Z,50.923088
2022-08-18T07:43:00.923Z,50.923016
2022-08-18T07:43:44.717Z,50.923008
2022-08-18T07:44:43.752Z,50.922935
2022-08-18T07:45:43.707Z,50.922974
2022-08-18T07:46:43.784Z,50.923077
2022-08-18T07:47:43.695Z,50.923065
2022-08-18T07:48:43.677Z,50.923038
2022-08-18T07:50:13.466Z,50.922691
2022-08-18T07:50:58.379Z,50.922684
2022-08-18T07:51:45.721Z,50.922863
2022-08-18T07:52:46.809Z,50.922943
2022-08-18T07:53:43.642Z,50.922947
2022-08-18T07:54:49.354Z,50.923107
2022-08-18T07:55:45.630Z,50.923084
2022-08-18T07:56:43.711Z,50.923016
2022-08-18T07:57:43.623Z,50.923141
2022-08-18T07:58:43.595Z,50.922935
2022-08-18T07:59:43.594Z,50.923092
2022-08-18T08:01:00.154Z,50.923126
2022-08-18T08:01:45.660Z,50.923115
2022-08-18T08:02:43.580Z,50.923012
2022-08-18T08:03:43.555Z,50.922977
2022-08-18T08:04:43.543Z,50.922943
2022-08-18T08:05:43.584Z,50.922962
2022-08-18T08:07:06.107Z,50.923031
2022-08-18T08:07:45.649Z,50.923000
2022-08-18T08:08:43.527Z,50.922871
2022-08-18T08:09:47.146Z,50.922832
2022-08-18T08:10:44.524Z,50.922829
2022-08-18T08:11:44.426Z,50.922916
2022-08-18T08:12:43.480Z,50.923100
2022-08-18T08:13:55.207Z,50.923218
2022-08-18T08:14:45.468Z,50.922600
2022-08-18T08:15:43.498Z,50.923225
2022-08-18T08:16:43.472Z,50.924088
2022-08-18T08:17:43.450Z,50.923912
2022-08-18T08:18:43.432Z,50.923401
2022-08-18T08:19:59.895Z,50.923328
2022-08-18T08:20:45.478Z,50.923130
2022-08-18T08:21:43.435Z,50.923077
2022-08-18T08:22:44.407Z,50.922997
2022-08-18T08:23:45.298Z,50.922977
2022-08-18T08:24:44.386Z,50.923077
2022-08-18T08:25:46.761Z,50.923019
2022-08-18T08:26:44.372Z,50.923195
2022-08-18T08:27:43.363Z,50.923096
2022-08-18T08:28:43.386Z,50.922989
2022-08-18T08:29:43.349Z,50.923027
2022-08-18T08:30:43.373Z,50.923008
2022-08-18T08:31:43.372Z,50.922951
2022-08-18T08:32:43.332Z,50.922874
2022-08-18T08:33:43.318Z,50.922928
2022-08-18T08:34:43.316Z,50.922905
2022-08-18T08:35:47.268Z,50.922810
2022-08-18T08:36:44.297Z,50.922699
2022-08-18T08:37:43.296Z,50.922821
2022-08-18T08:38:44.963Z,50.922741
2022-08-18T08:39:44.322Z,50.922688
2022-08-18T08:40:43.303Z,50.922817
2022-08-18T08:41:43.281Z,50.922832
2022-08-18T08:42:43.251Z,50.922771
2022-08-18T08:43:43.234Z,50.922806
2022-08-18T08:44:58.445Z,50.922874
2022-08-18T08:45:45.252Z,50.922932
2022-08-18T08:46:43.217Z,50.922871
2022-08-18T08:47:43.200Z,50.922966
2022-08-18T08:48:43.193Z,50.922962
2022-08-18T08:49:43.177Z,50.922886
2022-08-18T08:50:43.209Z,50.922989
2022-08-18T08:51:43.165Z,50.922985
2022-08-18T08:52:43.165Z,50.922943
2022-08-18T08:53:43.176Z,50.922890
2022-08-18T08:54:43.153Z,50.922920
2022-08-18T08:55:43.140Z,50.922939
2022-08-18T08:56:43.162Z,50.922794
2022-08-18T08:57:43.118Z,50.922913
2022-08-18T08:58:43.111Z,50.922894
2022-08-18T08:59:43.104Z,50.922466
2022-08-18T09:00:43.111Z,50.922783
2022-08-18T09:01:43.338Z,50.922882
2022-08-18T09:02:48.167Z,50.922928
2022-08-18T09:03:45.077Z,50.922966
2022-08-18T09:05:07.324Z,50.922962
2022-08-18T09:05:44.057Z,50.922958
2022-08-18T09:06:43.088Z,50.922939
2022-08-18T09:07:43.042Z,50.922935
2022-08-18T09:08:43.038Z,50.922832
2022-08-18T09:09:43.023Z,50.922962
2022-08-18T09:10:43.011Z,50.922997
2022-08-18T09:11:43.041Z,50.922913
2022-08-18T09:12:42.986Z,50.922916
2022-08-18T09:13:43.992Z,50.922913
2022-08-18T09:14:42.988Z,50.922958
2022-08-18T09:15:42.976Z,50.922714
2022-08-18T09:16:43.031Z,50.922878
2022-08-18T09:17:42.964Z,50.922955
2022-08-18T09:18:42.949Z,50.922928
2022-08-18T09:19:42.940Z,50.923084
2022-08-18T09:20:47.199Z,50.923103
2022-08-18T09:21:44.974Z,50.922943
2022-08-18T09:22:42.913Z,50.922848
2022-08-18T09:23:42.906Z,50.922775
2022-08-18T09:24:42.937Z,50.923016
2022-08-18T09:25:42.897Z,50.922920
2022-08-18T09:26:42.927Z,50.922897
2022-08-18T09:28:09.358Z,50.922901
2022-08-18T09:28:44.860Z,50.922951
2022-08-18T09:29:44.198Z,50.923023
2022-08-18T09:30:42.858Z,50.922920
2022-08-18T09:31:42.927Z,50.922947
2022-08-18T09:32:49.174Z,50.922932
2022-08-18T09:33:43.841Z,50.922836
2022-08-18T09:34:45.511Z,50.922794
2022-08-18T09:35:42.842Z,50.922832
2022-08-18T09:36:42.801Z,50.922791
2022-08-18T09:37:42.836Z,50.922932
2022-08-18T09:38:42.790Z,50.922909
2022-08-18T09:39:42.808Z,50.922901
2022-08-18T09:41:44.780Z,50.922783
2022-08-18T09:42:48.405Z,50.922775
2022-08-18T09:43:43.769Z,50.922791
2022-08-18T09:44:42.850Z,50.922859
2022-08-18T09:45:42.751Z,50.922867
2022-08-18T09:47:43.697Z,50.922920
2022-08-18T09:50:37.346Z,50.922844
2022-08-18T09:50:43.708Z,50.922817
2022-08-18T09:51:42.692Z,50.922794
2022-08-18T09:52:42.697Z,50.922794
2022-08-18T09:53:42.712Z,50.922863
2022-08-18T09:54:42.679Z,50.922947
2022-08-18T09:55:52.096Z,50.922989
2022-08-18T09:56:53.470Z,50.923084
2022-08-18T09:57:44.036Z,50.922897
2022-08-18T09:58:42.630Z,50.922970
2022-08-18T09:59:42.611Z,50.922928
2022-08-18T10:00:42.640Z,50.922966
2022-08-18T10:01:42.684Z,50.922977
2022-08-18T10:02:47.613Z,50.923050
2022-08-18T10:03:43.600Z,50.923119
2022-08-18T10:04:42.573Z,50.923054
2022-08-18T10:05:42.594Z,50.923073
2022-08-18T10:06:42.978Z,50.923111
2022-08-18T10:07:44.152Z,50.923130
2022-08-18T10:08:42.755Z,50.923000
2022-08-18T10:09:44.052Z,50.923069
2022-08-18T10:11:00.755Z,50.923035
2022-08-18T10:11:43.542Z,50.923027
2022-08-18T10:12:42.531Z,50.922989
2022-08-18T10:13:48.963Z,50.923092
2022-08-18T10:14:45.113Z,50.923103
2022-08-18T10:15:42.525Z,50.923065
2022-08-18T10:17:12.953Z,50.923054
2022-08-18T10:17:44.449Z,50.923054
2022-08-18T10:18:42.449Z,50.923077
2022-08-18T10:19:42.444Z,50.923042
2022-08-18T10:20:42.630Z,50.923065
2022-08-18T10:21:42.469Z,50.923012
2022-08-18T10:22:42.422Z,50.923019
2022-08-18T10:23:47.995Z,50.923031
2022-08-18T10:24:43.415Z,50.923027
2022-08-18T10:25:42.429Z,50.922939
2022-08-18T10:26:42.382Z,50.922932
2022-08-18T10:27:43.376Z,50.922989
2022-08-18T10:28:42.373Z,50.923069
2022-08-18T10:29:42.369Z,50.923023
2022-08-18T10:30:49.883Z,50.923050
2022-08-18T10:31:43.337Z,50.922958
2022-08-18T10:32:44.372Z,50.922924
2022-08-18T10:33:43.331Z,50.922939
2022-08-18T10:34:51.471Z,50.923019
2022-08-18T10:35:43.369Z,50.923042
2022-08-18T10:36:42.303Z,50.923023
2022-08-18T10:37:42.298Z,50.923138
2022-08-18T10:38:46.173Z,50.923069
2022-08-18T10:39:43.291Z,50.923019
2022-08-18T10:40:42.282Z,50.923038
2022-08-18T10:41:42.289Z,50.922825
2022-08-18T10:42:42.252Z,50.923012
2022-08-18T10:43:46.201Z,50.923080
2022-08-18T10:44:44.251Z,50.923103
2022-08-18T10:45:50.775Z,50.922974
2022-08-18T10:46:46.691Z,50.923031
2022-08-18T10:47:42.243Z,50.923115
2022-08-18T10:48:42.201Z,50.922813
2022-08-18T10:50:43.183Z,50.922668
2022-08-18T10:51:58.010Z,50.922615
2022-08-18T10:53:44.961Z,50.922977
2022-08-18T10:54:51.025Z,50.922829
2022-08-18T10:55:48.571Z,50.922874
2022-08-18T10:56:43.830Z,50.922951
2022-08-18T10:57:42.139Z,50.922882
2022-08-18T10:58:42.152Z,50.922817
2022-08-18T10:59:52.208Z,50.923000
2022-08-18T11:00:43.139Z,50.923077
2022-08-18T11:01:42.102Z,50.922958
2022-08-18T11:02:42.109Z,50.923111
2022-08-18T11:03:51.087Z,50.923233
2022-08-18T11:04:44.079Z,50.922993
2022-08-18T11:05:42.101Z,50.923111
2022-08-18T11:06:42.064Z,50.922939
2022-08-18T11:07:42.710Z,50.923000
2022-08-18T11:08:42.048Z,50.922913
2022-08-18T11:09:45.905Z,50.922874
2022-08-18T11:10:58.078Z,50.922832
2022-08-18T11:11:52.927Z,50.922619
2022-08-18T11:12:43.045Z,50.922745
2022-08-18T11:13:42.007Z,50.922756
2022-08-18T11:14:41.995Z,50.922806
2022-08-18T11:15:41.993Z,50.922935
2022-08-18T11:16:42.017Z,50.922852
2022-08-18T11:17:42.891Z,50.922810
2022-08-18T11:18:43.123Z,50.922958
2022-08-18T11:19:42.412Z,50.922718
2022-08-18T11:20:43.447Z,50.922657
2022-08-18T11:21:43.348Z,50.922787
2022-08-18T11:22:41.936Z,50.922935
2022-08-18T11:23:42.922Z,50.923058
2022-08-18T11:24:41.910Z,50.922962
2022-08-18T11:25:41.940Z,50.922844
2022-08-18T11:26:41.897Z,50.922745
2022-08-18T11:27:41.890Z,50.922817
2022-08-18T11:28:45.104Z,50.922829
2022-08-18T11:29:41.907Z,50.922924